TimeMST,TemperatureF,Dew PointF,Humidity,Sea Level PressureIn,VisibilityMPH,Wind Direction,Wind SpeedMPH,Gust SpeedMPH,PrecipitationIn,Events,Conditions,WindDirDegrees,DateUTC
12:53 AM,-8.0,-15.0,71,30.36,10.0,Calm,Calm,-,N/A,,Clear,0,2013-01-14 07:53:00
1:53 AM,-9.0,-15.0,75,30.35,10.0,SE,3.5,-,N/A,,Clear,130,2013-01-14 08:53:00
2:53 AM,-9.9,-16.1,74,30.38,10.0,Calm,Calm,-,N/A,,Clear,0,2013-01-14 09:53:00
3:53 AM,-9.9,-15.0,78,30.39,10.0,WNW,4.6,-,N/A,,Overcast,300,2013-01-14 10:53:00
4:53 AM,-11.0,-16.1,78,30.39,10.0,Calm,Calm,-,N/A,,Overcast,0,2013-01-14 11:53:00
5:53 AM,-9.0,-16.1,71,30.40,10.0,Calm,Calm,-,N/A,,Overcast,0,2013-01-14 12:53:00
6:53 AM,-8.0,-14.1,75,30.42,10.0,WSW,3.5,-,N/A,,Partly Cloudy,250,2013-01-14 13:53:00
7:53 AM,-9.0,-16.1,71,30.44,10.0,Calm,Calm,-,N/A,,Clear,0,2013-01-14 14:53:00
8:53 AM,-9.0,-13.0,83,30.47,10.0,Calm,Calm,-,N/A,,Clear,0,2013-01-14 15:53:00
9:53 AM,-7.1,-13.0,75,30.46,4.0,NNW,3.5,-,N/A,,Haze,330,2013-01-14 16:53:00
10:53 AM,-4.0,-11.0,72,30.45,8.0,NNW,3.5,-,N/A,,Clear,340,2013-01-14 17:53:00
11:53 AM,-2.9,-11.0,68,30.42,10.0,Calm,Calm,-,N/A,,Clear,0,2013-01-14 18:53:00
12:53 PM,-2.0,-9.0,72,30.37,10.0,Calm,Calm,-,N/A,,Clear,0,2013-01-14 19:53:00
1:53 PM,-0.0,-7.1,72,30.35,10.0,Calm,Calm,-,N/A,,Clear,0,2013-01-14 20:53:00
2:53 PM,3.9,-7.1,60,30.32,10.0,Calm,Calm,-,N/A,,Clear,0,2013-01-14 21:53:00
3:53 PM,3.9,-5.1,66,30.31,10.0,Calm,Calm,-,N/A,,Clear,0,2013-01-14 22:53:00
4:53 PM,-2.9,-9.0,75,30.33,10.0,SE,8.1,-,N/A,,Clear,130,2013-01-14 23:53:00
5:53 PM,-2.9,-9.0,75,30.37,10.0,NNW,5.8,-,N/A,,Overcast,340,2013-01-15 00:53:00
6:53 PM,-4.0,-9.9,76,30.35,10.0,Calm,Calm,-,N/A,,Overcast,0,2013-01-15 01:53:00
7:53 PM,-6.0,-11.0,79,30.37,10.0,SSW,3.5,-,N/A,,Partly Cloudy,210,2013-01-15 02:53:00
8:53 PM,-6.0,-11.0,79,30.38,10.0,Calm,Calm,-,N/A,,Mostly Cloudy,0,2013-01-15 03:53:00
9:53 PM,-5.1,-9.9,80,30.38,10.0,Calm,Calm,-,N/A,,Overcast,0,2013-01-15 04:53:00
10:53 PM,-2.9,-8.0,79,30.35,10.0,ENE,6.9,-,N/A,,Overcast,60,2013-01-15 05:53:00
11:53 PM,-4.0,-9.0,79,30.38,9.0,WNW,6.9,-,N/A,,Overcast,290,2013-01-15 06:53:00